Terminal Aerodrome Forecast
Issued by NWS

Home | Current Version | Previous Version | Graphics & Text | Print | Product List | Glossary On
Versions: 1 2 3 4 5 6 7 8 9 10 11 12 13 14 15 16 17 18 19 20 21 22 23 24 25 26 27 28
715
FTUS43 KLOT 261511 AAB
TAFORD
TAF AMD
KORD 261511Z 2615/2718 19015G23KT P6SM SCT025 BKN050
     FM262200 20012KT P6SM VCSH SCT020 OVC035
      TEMPO 2703/2707 4SM TSRA SCT012 OVC020CB
     FM270700 15010KT 2SM RA BR VCTS SCT008 OVC015CB
     FM271000 25010KT 5SM SHRA OVC008
     FM271400 27012G18KT P6SM VCSH BKN010=

USA.gov is the U.S. government's official web portal to all federal, state and local government web resources and services.